createdAt,value
2023-03-05T00:00:26.958Z,100417.03
2023-03-05T00:00:58.429Z,100414.59
2023-03-05T00:01:29.873Z,100409.97
2023-03-05T00:02:01.368Z,100410.22
2023-03-05T00:02:32.853Z,100405.31
2023-03-05T00:03:07.336Z,100405.31
2023-03-05T00:03:38.820Z,100407.50
2023-03-05T00:04:10.323Z,100414.31
2023-03-05T00:04:41.725Z,100411.59
2023-03-05T00:05:13.217Z,100408.31
2023-03-05T00:05:46.821Z,100408.59
2023-03-05T00:06:21.258Z,100412.69
2023-03-05T00:06:55.684Z,100408.88
2023-03-05T00:07:27.133Z,100405.31
2023-03-05T00:07:58.580Z,100415.41
2023-03-05T00:08:29.987Z,100404.50
2023-03-05T00:09:01.432Z,100408.03
2023-03-05T00:09:34.318Z,100404.50
2023-03-05T00:10:07.016Z,100402.88
2023-03-05T00:10:38.463Z,100406.94
2023-03-05T00:11:09.904Z,100401.50
2023-03-05T00:11:41.325Z,100399.59
2023-03-05T00:12:12.874Z,100399.06
2023-03-05T00:12:44.358Z,100392.50
2023-03-05T00:13:15.794Z,100394.97
2023-03-05T00:13:47.198Z,100392.78
2023-03-05T00:14:18.682Z,100394.69
2023-03-05T00:14:50.087Z,100398.22
2023-03-05T00:15:21.493Z,100395.50
2023-03-05T00:15:53.018Z,100395.50
2023-03-05T00:16:24.482Z,100396.03
2023-03-05T00:16:58.744Z,100397.41
2023-03-05T00:17:31.093Z,100396.59
2023-03-05T00:18:02.550Z,100399.06
2023-03-05T00:18:34.012Z,100399.88
2023-03-05T00:19:05.463Z,100388.41
2023-03-05T00:19:36.863Z,100395.50
2023-03-05T00:20:08.319Z,100399.06
2023-03-05T00:20:39.784Z,100390.88
2023-03-05T00:21:11.299Z,100391.16
2023-03-05T00:21:42.737Z,100391.16
2023-03-05T00:22:14.161Z,100397.41
2023-03-05T00:22:45.618Z,100394.69
2023-03-05T00:23:17.030Z,100391.16
2023-03-05T00:23:51.160Z,100398.50
2023-03-05T00:24:22.573Z,100393.06
2023-03-05T00:24:53.958Z,100384.91
2023-03-05T00:25:25.377Z,100395.25
2023-03-05T00:25:57.931Z,100385.69
2023-03-05T00:26:29.464Z,100390.34
2023-03-05T00:27:00.913Z,100379.44
2023-03-05T00:27:32.340Z,100382.97
2023-03-05T00:28:03.887Z,100385.69
2023-03-05T00:28:35.273Z,100382.97
2023-03-05T00:29:06.654Z,100387.31
2023-03-05T00:29:38.022Z,100384.06
2023-03-05T00:30:09.388Z,100380.25
2023-03-05T00:30:40.819Z,100381.06
2023-03-05T00:31:12.215Z,100383.50
2023-03-05T00:31:43.729Z,100378.88
2023-03-05T00:32:15.188Z,100387.31
2023-03-05T00:32:46.687Z,100381.06
2023-03-05T00:33:19.114Z,100384.06
2023-03-05T00:33:50.485Z,100385.97
2023-03-05T00:34:24.745Z,100385.69
2023-03-05T00:34:56.171Z,100382.16
2023-03-05T00:35:27.592Z,100383.78
2023-03-05T00:35:59.151Z,100378.34
2023-03-05T00:36:30.611Z,100375.88
2023-03-05T00:37:02.071Z,100378.59
2023-03-05T00:37:33.599Z,100374.78
2023-03-05T00:38:07.846Z,100372.34
2023-03-05T00:38:39.390Z,100372.34
2023-03-05T00:39:10.750Z,100379.44
2023-03-05T00:39:42.228Z,100375.88
2023-03-05T00:40:13.639Z,100377.78
2023-03-05T00:40:47.450Z,100370.97
2023-03-05T00:41:18.879Z,100376.41
2023-03-05T00:41:50.351Z,100378.06
2023-03-05T00:42:21.778Z,100380.78
2023-03-05T00:42:53.223Z,100373.69
2023-03-05T00:43:24.656Z,100378.06
2023-03-05T00:43:56.168Z,100377.22
2023-03-05T00:44:27.612Z,100375.31
2023-03-05T00:44:59.028Z,100378.06
2023-03-05T00:45:30.489Z,100372.06
2023-03-05T00:46:01.889Z,100375.59
2023-03-05T00:46:33.360Z,100373.16
2023-03-05T00:47:04.874Z,100368.25
2023-03-05T00:47:39.316Z,100370.16
2023-03-05T00:48:10.810Z,100374.50
2023-03-05T00:48:42.242Z,100372.06
2023-03-05T00:49:13.649Z,100371.78
2023-03-05T00:49:45.046Z,100369.34
2023-03-05T00:50:16.437Z,100374.22
2023-03-05T00:50:47.908Z,100368.78
2023-03-05T00:51:22.300Z,100372.84
2023-03-05T00:51:53.705Z,100370.69
2023-03-05T00:52:26.776Z,100371.78
2023-03-05T00:52:58.155Z,100370.16
2023-03-05T00:53:29.581Z,100363.88
2023-03-05T00:54:01.064Z,100368.53
2023-03-05T00:54:32.698Z,100366.31
2023-03-05T00:55:04.147Z,100360.88
2023-03-05T00:55:35.535Z,100367.97
2023-03-05T00:56:07.020Z,100367.97
2023-03-05T00:56:41.289Z,100368.78
2023-03-05T00:57:12.876Z,100366.88
2023-03-05T00:57:44.265Z,100365.78
2023-03-05T00:58:15.717Z,100360.88
2023-03-05T00:58:47.251Z,100369.06
2023-03-05T00:59:18.719Z,100360.88
2023-03-05T00:59:50.128Z,100369.06
2023-03-05T01:00:21.516Z,100367.97
2023-03-05T01:00:52.924Z,100364.69
2023-03-05T01:01:24.382Z,100358.16
2023-03-05T01:01:55.826Z,100358.97
2023-03-05T01:02:27.426Z,100360.88
2023-03-05T01:02:58.803Z,100359.53
2023-03-05T01:03:30.293Z,100361.97
2023-03-05T01:04:04.625Z,100360.06
2023-03-05T01:04:36.058Z,100357.59
2023-03-05T01:05:07.604Z,100349.16
2023-03-05T01:05:39.097Z,100354.31
2023-03-05T01:06:10.630Z,100354.59
2023-03-05T01:06:42.071Z,100360.06
2023-03-05T01:07:13.514Z,100357.06
2023-03-05T01:07:44.933Z,100353.50
2023-03-05T01:08:17.062Z,100353.78
2023-03-05T01:08:51.354Z,100358.44
2023-03-05T01:09:22.922Z,100356.78
2023-03-05T01:09:54.365Z,100351.34
2023-03-05T01:10:25.854Z,100349.44
2023-03-05T01:10:57.337Z,100350.53
2023-03-05T01:11:28.824Z,100352.16
2023-03-05T01:12:02.765Z,100350.78
2023-03-05T01:12:34.213Z,100347.25
2023-03-05T01:13:05.687Z,100352.97
2023-03-05T01:13:37.182Z,100344.25
2023-03-05T01:14:08.572Z,100348.91
2023-03-05T01:14:40.017Z,100345.88
2023-03-05T01:15:11.400Z,100346.69
2023-03-05T01:15:42.854Z,100347.53
2023-03-05T01:16:14.382Z,100352.69
2023-03-05T01:16:45.773Z,100352.69
2023-03-05T01:17:17.207Z,100352.41
2023-03-05T01:17:51.401Z,100339.88
2023-03-05T01:18:22.876Z,100339.91
2023-03-05T01:18:54.369Z,100344.28
2023-03-05T01:19:25.840Z,100341.84
2023-03-05T01:19:57.246Z,100340.44
2023-03-05T01:20:28.635Z,100342.63
2023-03-05T01:21:01.287Z,100338.28
2023-03-05T01:21:35.802Z,100337.78
2023-03-05T01:22:07.197Z,100339.94
2023-03-05T01:22:38.663Z,100339.13
2023-03-05T01:23:10.070Z,100334.22
2023-03-05T01:23:41.590Z,100339.91
2023-03-05T01:24:13.100Z,100339.09
2023-03-05T01:24:44.589Z,100343.75
2023-03-05T01:25:16.068Z,100341.56
2023-03-05T01:25:47.464Z,100340.75
2023-03-05T01:26:18.986Z,100335.31
2023-03-05T01:26:53.336Z,100341.06
2023-03-05T01:27:24.719Z,100336.41
2023-03-05T01:27:56.146Z,100333.38
2023-03-05T01:28:27.804Z,100339.63
2023-03-05T01:28:59.262Z,100330.66
2023-03-05T01:29:30.686Z,100333.91
2023-03-05T01:30:02.142Z,100335.00
2023-03-05T01:30:33.618Z,100329.00
2023-03-05T01:31:05.099Z,100335.81
2023-03-05T01:31:39.317Z,100328.72
2023-03-05T01:32:10.812Z,100334.44
2023-03-05T01:32:42.333Z,100322.72
2023-03-05T01:33:13.732Z,100322.97
2023-03-05T01:33:45.294Z,100325.72
2023-03-05T01:34:19.702Z,100326.53
2023-03-05T01:34:51.167Z,100328.72
2023-03-05T01:35:25.677Z,100317.53
2023-03-05T01:36:01.662Z,100325.72
2023-03-05T01:36:33.130Z,100318.06
2023-03-05T01:37:04.572Z,100319.69
2023-03-05T01:37:35.976Z,100316.16
2023-03-05T01:38:08.885Z,100315.31
2023-03-05T01:38:40.369Z,100317.25
2023-03-05T01:39:11.863Z,100318.88
2023-03-05T01:39:43.337Z,100314.25
2023-03-05T01:40:14.826Z,100320.50
2023-03-05T01:40:46.253Z,100321.31
2023-03-05T01:41:17.674Z,100314.25
2023-03-05T01:41:51.754Z,100319.69
2023-03-05T01:42:23.178Z,100318.59
2023-03-05T01:42:54.629Z,100319.69
2023-03-05T01:43:26.085Z,100322.69
2023-03-05T01:43:57.683Z,100312.59
2023-03-05T01:44:29.127Z,100316.44
2023-03-05T01:45:00.560Z,100319.69
2023-03-05T01:45:32.022Z,100317.22
2023-03-05T01:46:03.492Z,100318.31
2023-03-05T01:46:35.084Z,100314.25
2023-03-05T01:47:06.506Z,100315.34
2023-03-05T01:47:39.408Z,100315.88
2023-03-05T01:48:10.881Z,100316.69
2023-03-05T01:48:42.317Z,100315.88
2023-03-05T01:49:13.801Z,100317.50
2023-03-05T01:49:45.223Z,100317.25
2023-03-05T01:50:18.424Z,100316.16
2023-03-05T01:50:49.782Z,100322.69
2023-03-05T01:51:21.225Z,100311.78
2023-03-05T01:51:52.746Z,100322.41
2023-03-05T01:52:24.177Z,100314.25
2023-03-05T01:52:55.757Z,100312.59
2023-03-05T01:53:27.306Z,100309.59
2023-03-05T01:53:58.689Z,100314.25
2023-03-05T01:54:30.126Z,100310.97
2023-03-05T01:55:01.532Z,100315.34
2023-03-05T01:55:32.988Z,100305.53
2023-03-05T01:56:04.462Z,100313.44
2023-03-05T01:56:36.093Z,100314.81
2023-03-05T01:57:07.594Z,100314.81
2023-03-05T01:57:41.802Z,100311.78
2023-03-05T01:58:13.229Z,100309.88
2023-03-05T01:58:44.707Z,100309.06
2023-03-05T01:59:16.181Z,100313.44
2023-03-05T01:59:47.659Z,100312.59
2023-03-05T02:00:22.126Z,100307.16
2023-03-05T02:00:53.608Z,100303.91
2023-03-05T02:01:25.070Z,100310.97
2023-03-05T02:01:56.476Z,100310.69
2023-03-05T02:02:27.927Z,100310.97
2023-03-05T02:03:02.104Z,100312.59
2023-03-05T02:03:33.612Z,100309.59
2023-03-05T02:04:05.105Z,100307.44
2023-03-05T02:04:36.524Z,100318.88
2023-03-05T02:05:07.956Z,100310.69
2023-03-05T02:05:39.358Z,100311.50
2023-03-05T02:06:10.855Z,100314.25
2023-03-05T02:06:42.277Z,100310.97
2023-03-05T02:07:13.689Z,100312.06
2023-03-05T02:07:45.141Z,100306.91
2023-03-05T02:08:16.630Z,100309.34
2023-03-05T02:08:57.056Z,100310.16
2023-03-05T02:09:28.583Z,100300.91
2023-03-05T02:10:00.008Z,100302.25
2023-03-05T02:10:31.392Z,100306.09
2023-03-05T02:11:02.810Z,100303.06
2023-03-05T02:11:34.255Z,100306.91
2023-03-05T02:12:08.292Z,100301.44
2023-03-05T02:12:39.711Z,100301.72
2023-03-05T02:13:11.141Z,100306.91
2023-03-05T02:13:42.588Z,100309.63
2023-03-05T02:14:14.039Z,100301.16
2023-03-05T02:14:48.420Z,100302.25
2023-03-05T02:15:21.592Z,100301.16
2023-03-05T02:15:53.033Z,100299.25
2023-03-05T02:16:24.537Z,100297.91
2023-03-05T02:16:56.099Z,100294.91
2023-03-05T02:17:27.496Z,100297.34
2023-03-05T02:18:01.977Z,100296.25
2023-03-05T02:18:33.452Z,100291.59
2023-03-05T02:19:04.864Z,100297.34
2023-03-05T02:19:36.284Z,100294.34
2023-03-05T02:20:07.791Z,100296.25
2023-03-05T02:20:39.244Z,100288.06
2023-03-05T02:21:10.695Z,100292.44
2023-03-05T02:21:42.096Z,100293.00
2023-03-05T02:22:13.501Z,100294.91
2023-03-05T02:22:47.123Z,100290.25
2023-03-05T02:23:18.563Z,100286.72
2023-03-05T02:23:49.964Z,100293.00
2023-03-05T02:24:21.380Z,100285.91
2023-03-05T02:24:52.891Z,100291.34
2023-03-05T02:25:26.118Z,100290.53
2023-03-05T02:25:57.515Z,100287.00
2023-03-05T02:26:29.017Z,100285.91
2023-03-05T02:27:00.475Z,100280.72
2023-03-05T02:27:31.942Z,100281.53
2023-03-05T02:28:03.385Z,100282.06
2023-03-05T02:28:34.794Z,100279.06
2023-03-05T02:29:06.243Z,100281.53
2023-03-05T02:29:37.693Z,100269.22
2023-03-05T02:30:09.143Z,100271.72
2023-03-05T02:30:40.616Z,100272.53
2023-03-05T02:31:14.758Z,100276.34
2023-03-05T02:31:48.923Z,100273.34
2023-03-05T02:32:20.597Z,100268.97
2023-03-05T02:32:51.997Z,100272.81
2023-03-05T02:33:23.512Z,100282.91
2023-03-05T02:33:57.761Z,100269.25
2023-03-05T02:34:29.175Z,100276.34
2023-03-05T02:35:00.643Z,100266.81
2023-03-05T02:35:32.098Z,100264.09
2023-03-05T02:36:03.724Z,100265.72
2023-03-05T02:36:35.154Z,100265.72
2023-03-05T02:37:06.651Z,100262.72
2023-03-05T02:37:38.054Z,100263.00
2023-03-05T02:38:09.471Z,100253.72
2023-03-05T02:38:40.963Z,100258.63
2023-03-05T02:39:12.463Z,100256.72
2023-03-05T02:39:43.930Z,100260.28
2023-03-05T02:40:15.312Z,100258.06
2023-03-05T02:40:46.705Z,100255.34
2023-03-05T02:41:18.200Z,100254.00
2023-03-05T02:41:51.484Z,100250.47
2023-03-05T02:42:22.896Z,100257.78
2023-03-05T02:42:54.310Z,100251.00
2023-03-05T02:43:25.679Z,100252.63
2023-03-05T02:44:04.060Z,100251.81
2023-03-05T02:44:35.469Z,100254.25
2023-03-05T02:45:06.937Z,100253.97
2023-03-05T02:45:38.466Z,100249.63
2023-03-05T02:46:09.955Z,100252.09
2023-03-05T02:46:41.453Z,100247.72
2023-03-05T02:47:12.859Z,100256.44
2023-03-05T02:47:46.951Z,100254.53
2023-03-05T02:48:18.400Z,100247.97
2023-03-05T02:48:49.831Z,100254.53
2023-03-05T02:49:21.295Z,100259.16
2023-03-05T02:49:52.723Z,100249.06
2023-03-05T02:50:26.976Z,100263.00
2023-03-05T02:50:58.449Z,100251.81
2023-03-05T02:51:29.900Z,100255.34
2023-03-05T02:52:01.413Z,100250.72
2023-03-05T02:52:32.872Z,100254.25
2023-03-05T02:53:04.297Z,100252.63
2023-03-05T02:53:35.722Z,100253.16
2023-03-05T02:54:07.146Z,100253.44
2023-03-05T02:54:38.591Z,100255.63
2023-03-05T02:55:10.046Z,100255.09
2023-03-05T02:55:41.495Z,100249.34
2023-03-05T02:56:15.432Z,100249.34
2023-03-05T02:56:46.935Z,100249.63
2023-03-05T02:57:18.393Z,100252.09
2023-03-05T02:57:49.880Z,100248.53
2023-03-05T02:58:23.587Z,100250.19
2023-03-05T02:58:55.068Z,100244.72
2023-03-05T02:59:26.501Z,100243.91
2023-03-05T02:59:58.069Z,100244.72
2023-03-05T03:00:29.602Z,100243.91
2023-03-05T03:01:01.122Z,100243.91
2023-03-05T03:01:32.644Z,100242.81
2023-03-05T03:02:04.108Z,100241.19
2023-03-05T03:02:35.513Z,100239.56
2023-03-05T03:03:07.026Z,100244.19
2023-03-05T03:03:38.465Z,100234.38
2023-03-05T03:04:09.957Z,100230.56
2023-03-05T03:04:41.390Z,100235.19
2023-03-05T03:05:12.888Z,100232.47
2023-03-05T03:05:44.376Z,100234.09
2023-03-05T03:06:15.791Z,100234.63
2023-03-05T03:06:47.235Z,100227.53
2023-03-05T03:07:18.687Z,100231.38
2023-03-05T03:07:50.089Z,100230.56
2023-03-05T03:08:24.373Z,100232.75
2023-03-05T03:08:55.822Z,100228.94
2023-03-05T03:09:27.220Z,100227.56
2023-03-05T03:09:58.632Z,100224.56
2023-03-05T03:10:30.113Z,100231.38
2023-03-05T03:11:01.638Z,100227.84
2023-03-05T03:11:33.061Z,100228.66
2023-03-05T03:12:04.527Z,100226.44
2023-03-05T03:12:36.077Z,100227.53
2023-03-05T03:13:07.528Z,100224.81
2023-03-05T03:13:41.756Z,100224.28
2023-03-05T03:14:13.183Z,100227.00
2023-03-05T03:14:46.920Z,100220.75
2023-03-05T03:15:18.409Z,100226.47
2023-03-05T03:15:49.894Z,100232.47
2023-03-05T03:16:21.385Z,100227.00
2023-03-05T03:16:52.872Z,100220.47
2023-03-05T03:17:24.314Z,100231.38
2023-03-05T03:17:55.724Z,100227.53
2023-03-05T03:18:27.113Z,100225.91
2023-03-05T03:18:58.514Z,100222.38
2023-03-05T03:19:29.938Z,100221.03
2023-03-05T03:20:01.607Z,100224.28
2023-03-05T03:20:33.141Z,100221.28
2023-03-05T03:21:04.698Z,100227.84
2023-03-05T03:21:36.186Z,100220.47
2023-03-05T03:22:07.647Z,100225.91
2023-03-05T03:22:44.949Z,100221.28
2023-03-05T03:23:16.359Z,100217.19
2023-03-05T03:23:47.770Z,100218.03
2023-03-05T03:24:19.212Z,100218.84
2023-03-05T03:24:50.638Z,100216.63
2023-03-05T03:25:22.055Z,100217.19
2023-03-05T03:25:53.505Z,100216.91
2023-03-05T03:26:25.021Z,100215.81
2023-03-05T03:26:56.477Z,100207.41
2023-03-05T03:27:27.858Z,100205.72
2023-03-05T03:27:59.358Z,100207.66
2023-03-05T03:28:30.974Z,100206.00
2023-03-05T03:29:05.411Z,100203.56
2023-03-05T03:29:36.866Z,100209.03
2023-03-05T03:30:08.316Z,100201.66
2023-03-05T03:30:39.745Z,100196.22
2023-03-05T03:31:11.305Z,100200.84
2023-03-05T03:31:42.842Z,100206.84
2023-03-05T03:32:14.269Z,100196.75
2023-03-05T03:32:45.740Z,100197.56
2023-03-05T03:33:17.168Z,100203.53
2023-03-05T03:33:48.636Z,100195.63
2023-03-05T03:34:20.066Z,100194.53
2023-03-05T03:34:51.514Z,100199.47
2023-03-05T03:35:23.010Z,100202.47
2023-03-05T03:35:54.494Z,100190.47
2023-03-05T03:36:28.769Z,100200.28
2023-03-05T03:37:00.204Z,100197.03
2023-03-05T03:37:31.580Z,100197.84
2023-03-05T03:38:03.042Z,100198.94
2023-03-05T03:38:34.412Z,100195.41
2023-03-05T03:39:05.905Z,100193.47
2023-03-05T03:39:40.145Z,100197.03
2023-03-05T03:40:11.578Z,100197.84
2023-03-05T03:40:45.189Z,100192.66
2023-03-05T03:41:17.720Z,100188.56
2023-03-05T03:41:49.229Z,100193.75
2023-03-05T03:42:20.756Z,100194.56
2023-03-05T03:42:52.252Z,100194.56
2023-03-05T03:43:23.676Z,100195.09
2023-03-05T03:43:55.101Z,100195.09
2023-03-05T03:44:26.558Z,100197.31
2023-03-05T03:45:01.030Z,100191.03
2023-03-05T03:45:32.606Z,100191.03
2023-03-05T03:46:04.106Z,100188.03
2023-03-05T03:46:35.558Z,100189.66
2023-03-05T03:47:07.036Z,100187.75
2023-03-05T03:47:40.611Z,100183.91
2023-03-05T03:48:11.989Z,100189.38
2023-03-05T03:48:43.421Z,100186.38
2023-03-05T03:49:14.822Z,100184.75
2023-03-05T03:49:46.222Z,100180.38
2023-03-05T03:50:17.652Z,100186.94
2023-03-05T03:50:49.134Z,100187.47
2023-03-05T03:51:23.345Z,100180.66
2023-03-05T03:51:56.323Z,100181.47
2023-03-05T03:52:27.816Z,100174.13
2023-03-05T03:52:59.236Z,100179.00
2023-03-05T03:53:30.706Z,100174.63
2023-03-05T03:54:02.172Z,100183.91
2023-03-05T03:54:33.578Z,100171.38
2023-03-05T03:55:05.029Z,100177.66
2023-03-05T03:55:36.389Z,100164.84
2023-03-05T03:56:10.899Z,100175.22
2023-03-05T03:56:42.320Z,100171.66
2023-03-05T03:57:13.796Z,100167.84
2023-03-05T03:57:48.049Z,100170.56
2023-03-05T03:58:19.471Z,100170.56
2023-03-05T03:58:50.879Z,100169.19
2023-03-05T03:59:22.339Z,100165.66
2023-03-05T03:59:53.702Z,100164.84
2023-03-05T04:00:25.127Z,100164.03
2023-03-05T04:00:56.522Z,100164.28
2023-03-05T04:01:30.781Z,100163.97
2023-03-05T04:02:02.271Z,100162.63
2023-03-05T04:02:33.751Z,100163.16
2023-03-05T04:03:05.242Z,100167.81
2023-03-05T04:03:36.643Z,100162.91
2023-03-05T04:04:08.070Z,100167.56
2023-03-05T04:04:39.654Z,100170.00
2023-03-05T04:05:11.136Z,100170.00
2023-03-05T04:05:42.541Z,100158.28
2023-03-05T04:06:16.612Z,100170.00
2023-03-05T04:06:48.026Z,100159.91
2023-03-05T04:07:19.488Z,100160.72
2023-03-05T04:07:50.858Z,100161.00
2023-03-05T04:08:22.314Z,100161.28
2023-03-05T04:08:53.834Z,100163.75
2023-03-05T04:09:25.196Z,100167.81
2023-03-05T04:09:56.609Z,100160.72
2023-03-05T04:10:28.001Z,100164.28
2023-03-05T04:10:59.473Z,100164.03
2023-03-05T04:11:30.890Z,100162.91
2023-03-05T04:12:02.330Z,100153.41
2023-03-05T04:12:33.793Z,100163.19
2023-03-05T04:13:05.224Z,100161.28
2023-03-05T04:13:39.752Z,100165.94
2023-03-05T04:14:11.158Z,100156.66
2023-03-05T04:14:42.714Z,100160.19
2023-03-05T04:15:14.109Z,100163.44
2023-03-05T04:15:45.524Z,100166.47
2023-03-05T04:16:17.076Z,100159.66
2023-03-05T04:16:48.517Z,100154.75
2023-03-05T04:17:19.906Z,100159.66
2023-03-05T04:17:51.351Z,100156.66
2023-03-05T04:18:22.791Z,100154.22
2023-03-05T04:18:54.256Z,100146.56
2023-03-05T04:19:25.724Z,100151.19
2023-03-05T04:19:57.162Z,100152.00
2023-03-05T04:20:28.546Z,100152.84
2023-03-05T04:20:59.924Z,100148.19
2023-03-05T04:21:31.378Z,100149.81
2023-03-05T04:22:02.814Z,100149.81
2023-03-05T04:22:36.993Z,100146.84
2023-03-05T04:23:08.442Z,100146.84
2023-03-05T04:23:39.816Z,100148.75
2023-03-05T04:24:11.251Z,100155.03
2023-03-05T04:24:42.693Z,100148.75
2023-03-05T04:25:14.088Z,100150.97
2023-03-05T04:25:45.531Z,100144.13
2023-03-05T04:26:16.981Z,100149.28
2023-03-05T04:26:48.488Z,100139.19
2023-03-05T04:27:19.901Z,100148.47
2023-03-05T04:27:53.788Z,100154.47
2023-03-05T04:28:25.244Z,100141.09
2023-03-05T04:28:56.676Z,100153.66
2023-03-05T04:29:28.053Z,100146.84
2023-03-05T04:29:59.477Z,100144.66
2023-03-05T04:30:30.956Z,100145.75
2023-03-05T04:31:02.440Z,100149.28
2023-03-05T04:31:34.021Z,100140.56
2023-03-05T04:32:05.872Z,100144.13
2023-03-05T04:32:37.376Z,100145.75
2023-03-05T04:33:11.893Z,100139.19
2023-03-05T04:33:43.295Z,100144.66
2023-03-05T04:34:14.709Z,100144.38
2023-03-05T04:34:46.202Z,100139.72
2023-03-05T04:35:17.626Z,100145.19
2023-03-05T04:35:49.163Z,100141.91
2023-03-05T04:36:28.580Z,100140.81
2023-03-05T04:36:59.984Z,100138.91
2023-03-05T04:37:31.540Z,100141.63
2023-03-05T04:38:03.053Z,100141.91
2023-03-05T04:38:34.660Z,100141.09
2023-03-05T04:39:06.081Z,100146.28
2023-03-05T04:39:37.545Z,100142.22
2023-03-05T04:40:09.000Z,100141.63
2023-03-05T04:40:40.479Z,100140.28
2023-03-05T04:41:11.884Z,100140.28
2023-03-05T04:41:43.323Z,100141.91
2023-03-05T04:42:14.757Z,100145.19
2023-03-05T04:42:46.237Z,100135.09
2023-03-05T04:43:17.685Z,100135.09
2023-03-05T04:43:49.105Z,100135.09
2023-03-05T04:44:20.585Z,100136.47
2023-03-05T04:44:51.975Z,100136.22
2023-03-05T04:45:23.370Z,100137.03
2023-03-05T04:45:54.864Z,100138.66
2023-03-05T04:46:27.510Z,100139.47
2023-03-05T04:46:59.050Z,100135.38
2023-03-05T04:47:30.470Z,100139.19
2023-03-05T04:48:01.956Z,100135.38
2023-03-05T04:48:33.369Z,100127.19
2023-03-05T04:49:04.806Z,100131.00
2023-03-05T04:49:36.234Z,100127.19
2023-03-05T04:50:07.691Z,100129.38
2023-03-05T04:50:39.078Z,100131.84
2023-03-05T04:51:13.366Z,100128.28
2023-03-05T04:51:44.838Z,100126.66
2023-03-05T04:52:19.078Z,100128.56
2023-03-05T04:52:50.545Z,100124.47
2023-03-05T04:53:22.048Z,100125.84
2023-03-05T04:53:53.457Z,100131.00
2023-03-05T04:54:24.885Z,100125.84
2023-03-05T04:54:56.354Z,100122.31
2023-03-05T04:55:27.801Z,100130.19
2023-03-05T04:55:59.277Z,100121.22
2023-03-05T04:56:30.801Z,100120.13
2023-03-05T04:57:04.096Z,100125.84
2023-03-05T04:57:35.605Z,100125.84
2023-03-05T04:58:07.011Z,100130.19
2023-03-05T04:58:38.472Z,100124.75
2023-03-05T04:59:10.048Z,100122.31
2023-03-05T04:59:44.358Z,100116.03
2023-03-05T05:00:15.754Z,100125.03
2023-03-05T05:00:47.181Z,100117.94
2023-03-05T05:01:18.694Z,100125.31
2023-03-05T05:01:50.319Z,100119.06
2023-03-05T05:02:21.842Z,100124.50
2023-03-05T05:02:53.274Z,100121.78
2023-03-05T05:03:24.757Z,100125.31
2023-03-05T05:03:56.215Z,100121.50
2023-03-05T05:04:27.636Z,100122.88
2023-03-05T05:04:59.039Z,100115.78
2023-03-05T05:05:30.489Z,100117.72
2023-03-05T05:06:01.938Z,100125.59
2023-03-05T05:06:36.159Z,100122.88
2023-03-05T05:07:07.624Z,100117.41
2023-03-05T05:07:39.122Z,100122.06
2023-03-05T05:08:12.534Z,100121.78
2023-03-05T05:08:46.686Z,100117.13
2023-03-05T05:09:18.180Z,100119.63
2023-03-05T05:09:49.595Z,100122.06
2023-03-05T05:10:24.038Z,100121.78
2023-03-05T05:10:55.498Z,100122.88
2023-03-05T05:11:26.919Z,100121.78
2023-03-05T05:11:58.340Z,100120.97
2023-03-05T05:12:29.721Z,100120.97
2023-03-05T05:13:01.233Z,100122.88
2023-03-05T05:13:32.625Z,100119.06
2023-03-05T05:14:04.101Z,100120.69
2023-03-05T05:14:37.823Z,100120.69
2023-03-05T05:15:09.359Z,100112.78
2023-03-05T05:15:40.811Z,100118.25
2023-03-05T05:16:15.400Z,100124.50
2023-03-05T05:16:46.879Z,100121.22
2023-03-05T05:17:18.363Z,100118.47
2023-03-05T05:17:49.766Z,100115.22
2023-03-05T05:18:21.215Z,100117.94
2023-03-05T05:18:52.625Z,100119.06
2023-03-05T05:19:24.064Z,100114.97
2023-03-05T05:19:55.498Z,100116.31
2023-03-05T05:20:26.887Z,100113.59
2023-03-05T05:20:58.290Z,100120.69
2023-03-05T05:21:29.731Z,100116.84
2023-03-05T05:22:01.176Z,100113.59
2023-03-05T05:22:32.709Z,100115.78
2023-03-05T05:23:04.119Z,100113.59
2023-03-05T05:23:35.586Z,100110.88
2023-03-05T05:24:07.064Z,100108.97
2023-03-05T05:24:38.515Z,100104.06
2023-03-05T05:25:12.060Z,100106.53
2023-03-05T05:25:43.446Z,100109.78
2023-03-05T05:26:14.910Z,100112.50
2023-03-05T05:26:46.323Z,100107.06
2023-03-05T05:27:17.749Z,100109.78
2023-03-05T05:27:52.223Z,100104.59
2023-03-05T05:28:23.681Z,100113.59
2023-03-05T05:28:55.240Z,100111.69
2023-03-05T05:29:26.664Z,100107.34
2023-03-05T05:29:58.142Z,100110.88
2023-03-05T05:30:29.523Z,100108.16
2023-03-05T05:31:00.923Z,100111.97
2023-03-05T05:31:32.384Z,100110.06
2023-03-05T05:32:03.843Z,100111.16
2023-03-05T05:32:35.347Z,100101.06
2023-03-05T05:33:06.795Z,100110.06
2023-03-05T05:33:38.211Z,100110.59
2023-03-05T05:34:09.651Z,100104.03
2023-03-05T05:34:41.058Z,100103.75
2023-03-05T05:35:12.511Z,100105.94
2023-03-05T05:35:43.972Z,100111.41
2023-03-05T05:36:15.450Z,100109.50
2023-03-05T05:36:46.938Z,100109.78
2023-03-05T05:37:18.335Z,100105.94
2023-03-05T05:37:49.863Z,100108.38
2023-03-05T05:38:21.294Z,100112.75
2023-03-05T05:38:52.765Z,100110.84
2023-03-05T05:39:24.243Z,100106.19
2023-03-05T05:39:58.556Z,100107.56
2023-03-05T05:40:30.027Z,100106.75
2023-03-05T05:41:02.572Z,100103.22
2023-03-05T05:41:34.047Z,100107.88
2023-03-05T05:42:05.432Z,100105.13
2023-03-05T05:42:36.921Z,100104.31
2023-03-05T05:43:08.613Z,100104.84
2023-03-05T05:43:40.060Z,100102.69
2023-03-05T05:44:11.444Z,100103.50
2023-03-05T05:44:43.122Z,100103.50
2023-03-05T05:45:17.356Z,100099.97
2023-03-05T05:45:48.853Z,100103.50
2023-03-05T05:46:20.526Z,100101.59
2023-03-05T05:46:52.064Z,100097.78
2023-03-05T05:47:23.511Z,100097.78
2023-03-05T05:47:54.914Z,100100.50
2023-03-05T05:48:26.408Z,100103.22
2023-03-05T05:48:57.771Z,100098.88
2023-03-05T05:49:29.248Z,100097.53
2023-03-05T05:50:00.753Z,100094.81
2023-03-05T05:50:32.232Z,100093.16
2023-03-05T05:51:03.617Z,100096.72
2023-03-05T05:51:35.034Z,100100.78
2023-03-05T05:52:06.470Z,100090.16
2023-03-05T05:52:37.915Z,100098.34
2023-03-05T05:53:09.345Z,100102.97
2023-03-05T05:53:40.733Z,100095.03
2023-03-05T05:54:12.206Z,100097.78
2023-03-05T05:54:43.651Z,100098.28
2023-03-05T05:55:15.133Z,100103.22
2023-03-05T05:55:46.668Z,100095.84
2023-03-05T05:56:18.182Z,100093.13
2023-03-05T05:56:49.650Z,100092.59
2023-03-05T05:57:21.060Z,100099.41
2023-03-05T05:57:52.534Z,100096.66
2023-03-05T05:58:23.961Z,100093.41
2023-03-05T05:58:55.395Z,100092.31
2023-03-05T05:59:26.868Z,100093.94
2023-03-05T05:59:58.357Z,100093.94
2023-03-05T06:00:29.963Z,100090.41
2023-03-05T06:01:01.361Z,100091.22
2023-03-05T06:01:32.934Z,100094.50
2023-03-05T06:02:04.470Z,100095.03
2023-03-05T06:02:36.004Z,100092.31
2023-03-05T06:03:07.462Z,100092.88